createdAt,value
2022-10-14T00:01:24.270Z,77.57
2022-10-14T00:03:52.829Z,76.55
2022-10-14T00:06:27.791Z,62.40
2022-10-14T00:08:55.729Z,59.17
2022-10-14T00:11:28.341Z,65.68
2022-10-14T00:14:16.816Z,56.45
2022-10-14T00:16:47.003Z,60.45
2022-10-14T00:21:46.204Z,72.15
2022-10-14T00:24:17.070Z,68.53
2022-10-14T00:26:45.271Z,64.95
2022-10-14T00:29:18.991Z,60.00
2022-10-14T00:31:47.715Z,65.10
2022-10-14T00:34:16.211Z,59.10
2022-10-14T00:36:44.671Z,58.97
2022-10-14T00:39:16.042Z,53.03
2022-10-14T00:41:43.800Z,55.42
2022-10-14T00:44:11.038Z,57.13
2022-10-14T00:46:41.844Z,57.50
2022-10-14T00:52:06.316Z,63.22
2022-10-14T00:54:44.941Z,50.50
2022-10-14T00:57:12.437Z,48.20
2022-10-14T00:59:40.408Z,51.95
2022-10-14T01:02:07.653Z,48.90
2022-10-14T01:04:39.508Z,51.08
2022-10-14T01:07:34.597Z,54.42
2022-10-14T01:10:44.466Z,61.97
2022-10-14T01:13:34.600Z,55.65
2022-10-14T01:16:35.831Z,47.33
2022-10-14T01:19:05.917Z,50.83
2022-10-14T01:21:48.689Z,50.42
2022-10-14T01:24:36.236Z,49.13
2022-10-14T01:27:28.952Z,51.03
2022-10-14T01:30:16.313Z,57.25
2022-10-14T01:33:09.070Z,49.22
2022-10-14T01:36:01.038Z,55.72
2022-10-14T01:38:44.142Z,57.83
2022-10-14T01:41:31.171Z,56.17
2022-10-14T01:44:08.540Z,58.55
2022-10-14T01:46:41.457Z,61.90
2022-10-14T01:49:20.888Z,54.53
2022-10-14T01:51:54.651Z,54.15
2022-10-14T01:54:31.678Z,61.83
2022-10-14T01:57:03.621Z,58.55
2022-10-14T01:59:34.044Z,53.38
2022-10-14T02:02:01.405Z,69.03
2022-10-14T02:04:29.300Z,56.15
2022-10-14T02:07:40.193Z,52.75
2022-10-14T02:10:38.835Z,55.20
2022-10-14T02:13:34.086Z,54.05
2022-10-14T02:16:19.298Z,46.03
2022-10-14T02:19:06.087Z,49.70
2022-10-14T02:21:52.082Z,50.28
2022-10-14T02:24:27.369Z,54.78
2022-10-14T02:26:58.699Z,49.33
2022-10-14T02:29:28.124Z,46.60
2022-10-14T02:31:57.961Z,49.90
2022-10-14T02:34:26.400Z,49.33
2022-10-14T02:36:56.282Z,44.35
2022-10-14T02:39:35.692Z,43.92
2022-10-14T02:44:34.888Z,44.58
2022-10-14T02:47:02.170Z,48.60
2022-10-14T02:49:30.592Z,47.15
2022-10-14T02:51:57.850Z,43.78
2022-10-14T02:54:25.130Z,47.92
2022-10-14T02:56:52.330Z,48.75
2022-10-14T02:59:19.593Z,46.50
2022-10-14T03:01:47.232Z,40.80
2022-10-14T03:04:15.274Z,41.70
2022-10-14T03:06:42.880Z,41.20
2022-10-14T03:09:10.179Z,43.80
2022-10-14T03:11:40.670Z,42.45
2022-10-14T03:14:13.319Z,44.22
2022-10-14T03:16:43.170Z,39.67
2022-10-14T03:19:14.926Z,45.00
2022-10-14T03:21:49.121Z,39.38
2022-10-14T03:24:19.953Z,42.42
2022-10-14T03:26:52.221Z,45.47
2022-10-14T03:29:25.230Z,37.95
2022-10-14T03:32:00.964Z,36.95
2022-10-14T03:34:46.876Z,42.72
2022-10-14T03:37:19.876Z,36.10
2022-10-14T03:39:51.703Z,42.03
2022-10-14T03:42:19.287Z,37.05
2022-10-14T03:44:48.550Z,42.45
2022-10-14T03:47:20.437Z,41.10
2022-10-14T03:49:48.287Z,34.83
2022-10-14T03:52:27.359Z,35.50
2022-10-14T03:55:04.281Z,39.55
2022-10-14T03:57:32.388Z,34.80
2022-10-14T04:00:00.776Z,36.58
2022-10-14T04:02:48.245Z,35.38
2022-10-14T04:08:06.494Z,37.67
2022-10-14T04:10:35.142Z,41.22
2022-10-14T04:13:02.363Z,38.30
2022-10-14T04:15:37.061Z,38.85
2022-10-14T04:18:13.349Z,37.08
2022-10-14T04:20:42.297Z,32.67
2022-10-14T04:23:10.528Z,32.70
2022-10-14T04:25:40.976Z,36.67
2022-10-14T04:28:08.329Z,39.00
2022-10-14T04:30:45.879Z,38.50
2022-10-14T04:33:18.862Z,40.00
2022-10-14T04:35:48.173Z,37.75
2022-10-14T04:38:22.492Z,44.03
2022-10-14T04:40:55.665Z,30.77
2022-10-14T04:43:23.804Z,36.83
2022-10-14T04:45:52.168Z,34.90
2022-10-14T04:48:25.657Z,36.75
2022-10-14T04:50:54.118Z,35.30
2022-10-14T04:53:50.475Z,31.90
2022-10-14T04:56:38.276Z,30.30
2022-10-14T04:59:06.242Z,36.40
2022-10-14T05:01:53.484Z,38.22
2022-10-14T05:04:21.518Z,37.58
2022-10-14T05:06:50.800Z,35.17
2022-10-14T05:09:19.434Z,31.60
2022-10-14T05:11:46.681Z,29.17
2022-10-14T05:14:17.584Z,41.03
2022-10-14T05:16:48.412Z,38.08
2022-10-14T05:19:20.407Z,35.95
2022-10-14T05:24:25.947Z,31.55
2022-10-14T05:26:53.436Z,33.42
2022-10-14T05:29:20.762Z,37.63
2022-10-14T05:31:50.617Z,52.05
2022-10-14T05:34:33.442Z,37.10
2022-10-14T05:37:03.238Z,34.75
2022-10-14T05:39:37.102Z,36.47
2022-10-14T05:42:05.734Z,45.67
2022-10-14T05:44:34.768Z,30.70
2022-10-14T05:47:03.095Z,34.13
2022-10-14T05:49:30.316Z,40.03
2022-10-14T05:52:00.059Z,32.17
2022-10-14T05:54:27.637Z,29.23
2022-10-14T05:56:57.394Z,32.80
2022-10-14T05:59:25.624Z,31.30
2022-10-14T06:01:52.893Z,29.85
2022-10-14T06:04:21.557Z,34.22
2022-10-14T06:06:49.069Z,30.25
2022-10-14T06:09:16.720Z,32.20
2022-10-14T06:11:44.596Z,24.60
2022-10-14T06:14:12.380Z,25.90
2022-10-14T06:16:40.741Z,34.88
2022-10-14T06:19:08.210Z,26.90
2022-10-14T06:21:35.495Z,27.42
2022-10-14T06:24:02.711Z,26.60
2022-10-14T06:26:29.903Z,31.55
2022-10-14T06:28:57.574Z,25.58
2022-10-14T06:31:27.498Z,31.13
2022-10-14T06:33:58.743Z,27.50
2022-10-14T06:36:27.057Z,26.73
2022-10-14T06:38:54.938Z,23.27
2022-10-14T06:41:22.290Z,31.10
2022-10-14T06:43:49.515Z,27.73
2022-10-14T06:46:17.036Z,28.58
2022-10-14T06:48:49.366Z,23.23
2022-10-14T06:51:18.133Z,24.98
2022-10-14T06:53:45.271Z,30.38
2022-10-14T06:56:12.660Z,26.27
2022-10-14T06:58:39.859Z,28.95
2022-10-14T07:01:08.962Z,23.95
2022-10-14T07:03:39.047Z,26.73
2022-10-14T07:06:08.354Z,30.45
2022-10-14T07:08:36.080Z,26.48
2022-10-14T07:11:04.312Z,23.90
2022-10-14T07:13:31.926Z,21.65
2022-10-14T07:15:59.499Z,32.42
2022-10-14T07:18:26.957Z,21.77
2022-10-14T07:20:54.274Z,24.60
2022-10-14T07:23:21.496Z,20.17
2022-10-14T07:25:48.660Z,22.02
2022-10-14T07:28:16.275Z,20.08
2022-10-14T07:30:43.537Z,22.67
2022-10-14T07:33:10.817Z,30.38
2022-10-14T07:35:39.134Z,24.23
2022-10-14T07:38:06.408Z,21.13
2022-10-14T07:40:33.740Z,21.75
2022-10-14T07:43:00.893Z,20.70
2022-10-14T07:45:30.676Z,19.10
2022-10-14T07:47:58.026Z,17.52
2022-10-14T07:50:25.883Z,23.85
2022-10-14T07:52:54.915Z,25.45
2022-10-14T07:55:24.942Z,21.95
2022-10-14T07:57:52.076Z,19.63
2022-10-14T08:00:19.539Z,19.67
2022-10-14T08:02:46.723Z,26.15
2022-10-14T08:05:36.569Z,23.17
2022-10-14T08:08:01.167Z,25.55
2022-10-14T08:10:28.477Z,25.88
2022-10-14T08:12:57.879Z,22.00
2022-10-14T08:15:28.626Z,24.47
2022-10-14T08:17:57.037Z,23.50
2022-10-14T08:20:24.418Z,22.92
2022-10-14T08:22:51.680Z,22.83
2022-10-14T08:25:19.086Z,22.52
2022-10-14T08:27:51.189Z,30.60
2022-10-14T08:30:18.912Z,21.75
2022-10-14T08:32:46.331Z,21.90
2022-10-14T08:35:13.568Z,28.35
2022-10-14T08:37:40.779Z,22.25
2022-10-14T08:40:15.251Z,27.25
2022-10-14T08:43:02.077Z,29.63
2022-10-14T08:45:45.588Z,23.08
2022-10-14T08:48:19.851Z,23.02
2022-10-14T08:51:10.997Z,23.80
2022-10-14T08:53:48.767Z,22.98
2022-10-14T08:56:17.610Z,21.65
2022-10-14T08:58:50.631Z,23.52
2022-10-14T09:01:49.313Z,23.70
2022-10-14T09:04:17.694Z,26.92
2022-10-14T09:06:48.903Z,19.88
2022-10-14T09:09:43.522Z,22.35
2022-10-14T09:12:16.719Z,22.55
2022-10-14T09:15:05.375Z,24.63
2022-10-14T09:17:48.373Z,21.67
2022-10-14T09:20:21.137Z,22.10
2022-10-14T09:23:22.963Z,27.88
2022-10-14T09:26:17.555Z,24.95
2022-10-14T09:28:46.102Z,22.38
2022-10-14T09:31:14.377Z,25.75
2022-10-14T09:33:44.217Z,21.75
2022-10-14T09:36:19.420Z,27.85
2022-10-14T09:38:54.079Z,19.77
2022-10-14T09:41:30.415Z,25.02
2022-10-14T09:44:25.387Z,23.90
2022-10-14T09:47:12.292Z,27.02
2022-10-14T09:49:45.755Z,22.48
2022-10-14T09:52:26.228Z,26.75
2022-10-14T09:55:00.652Z,24.05
2022-10-14T09:57:28.436Z,24.23
2022-10-14T10:00:02.023Z,20.30
2022-10-14T10:02:43.702Z,24.52
2022-10-14T10:05:36.126Z,27.90
2022-10-14T10:08:21.644Z,21.55
2022-10-14T10:11:10.725Z,23.00
2022-10-14T10:13:47.203Z,23.77
2022-10-14T10:16:26.563Z,21.88
2022-10-14T10:18:56.086Z,26.58
2022-10-14T10:21:30.318Z,25.70
2022-10-14T10:24:01.353Z,22.80
2022-10-14T10:26:34.386Z,24.27
2022-10-14T10:29:05.809Z,26.13
2022-10-14T10:31:50.975Z,25.88
2022-10-14T10:34:45.855Z,25.80
2022-10-14T10:37:20.256Z,21.70
2022-10-14T10:40:09.439Z,23.88
2022-10-14T10:43:20.554Z,22.98
2022-10-14T10:46:13.881Z,25.60
2022-10-14T10:48:55.578Z,19.90
2022-10-14T10:51:29.475Z,25.20
2022-10-14T10:54:35.813Z,27.30
2022-10-14T10:57:46.842Z,21.02
2022-10-14T11:03:40.385Z,21.67
2022-10-14T11:06:43.441Z,17.42
2022-10-14T11:10:03.640Z,21.60
2022-10-14T11:12:54.200Z,19.08
2022-10-14T11:15:42.777Z,17.13
2022-10-14T11:18:49.608Z,17.38
2022-10-14T11:21:47.636Z,20.83
2022-10-14T11:24:26.898Z,21.00
2022-10-14T11:27:09.597Z,18.15
2022-10-14T11:30:01.571Z,17.20
2022-10-14T11:33:10.848Z,16.77
2022-10-14T11:35:56.388Z,17.85
2022-10-14T11:38:48.442Z,15.93
2022-10-14T11:42:13.683Z,14.93
2022-10-14T11:44:43.876Z,18.10
2022-10-14T11:47:28.267Z,18.80
2022-10-14T11:50:02.217Z,17.38
2022-10-14T11:52:50.166Z,19.95
2022-10-14T11:55:26.263Z,18.70
2022-10-14T11:58:12.109Z,16.45
2022-10-14T12:01:19.464Z,16.80
2022-10-14T12:04:11.233Z,17.33
2022-10-14T12:06:53.518Z,20.88
2022-10-14T12:09:39.145Z,18.88
2022-10-14T12:12:15.335Z,16.60
2022-10-14T12:14:51.675Z,19.65
2022-10-14T12:17:55.039Z,20.17
2022-10-14T12:20:55.404Z,22.50
2022-10-14T12:24:04.657Z,20.17
2022-10-14T12:26:52.329Z,18.88
2022-10-14T12:29:49.885Z,21.88
2022-10-14T12:32:17.037Z,24.23
2022-10-14T12:34:47.496Z,20.17
2022-10-14T12:40:02.852Z,21.95
2022-10-14T12:42:33.269Z,23.70
2022-10-14T12:45:23.662Z,24.50
2022-10-14T12:48:20.767Z,21.15
2022-10-14T12:50:50.219Z,26.40
2022-10-14T12:53:31.000Z,21.65
2022-10-14T12:56:04.448Z,22.27
2022-10-14T12:58:41.528Z,21.25
2022-10-14T13:01:23.951Z,19.92
2022-10-14T13:04:20.042Z,19.85
2022-10-14T13:07:42.135Z,20.80
2022-10-14T13:10:47.193Z,21.98
2022-10-14T13:13:40.315Z,22.98
2022-10-14T13:16:23.649Z,22.10
2022-10-14T13:18:58.043Z,20.67
2022-10-14T13:21:36.839Z,25.98
2022-10-14T13:24:16.478Z,24.20
2022-10-14T13:26:55.542Z,24.40
2022-10-14T13:30:00.839Z,25.60
2022-10-14T13:33:12.501Z,20.27
2022-10-14T13:35:51.607Z,23.50
2022-10-14T13:38:22.617Z,27.70
2022-10-14T13:40:56.831Z,22.80
2022-10-14T13:43:33.144Z,23.65
2022-10-14T13:46:08.618Z,22.85
2022-10-14T13:48:40.776Z,21.65
2022-10-14T13:54:32.857Z,22.83
2022-10-14T13:57:42.686Z,21.70
2022-10-14T14:02:51.792Z,22.95
2022-10-14T14:11:18.123Z,26.73
2022-10-14T14:14:00.402Z,22.80
2022-10-14T14:16:49.416Z,24.27
2022-10-14T14:19:33.777Z,23.33
2022-10-14T14:22:24.445Z,23.15
2022-10-14T14:24:53.219Z,27.83
2022-10-14T14:27:24.044Z,19.70
2022-10-14T14:29:54.185Z,15.77
2022-10-14T14:32:30.120Z,18.60
2022-10-14T14:34:57.750Z,17.50
2022-10-14T14:37:48.113Z,16.55
2022-10-14T14:40:25.785Z,17.10
2022-10-14T14:43:02.114Z,14.93
2022-10-14T14:45:46.465Z,13.75
2022-10-14T14:48:16.874Z,15.40
2022-10-14T14:53:29.634Z,14.20
2022-10-14T14:55:56.997Z,14.05
2022-10-14T14:58:52.976Z,13.48
2022-10-14T15:01:27.942Z,16.90
2022-10-14T15:04:33.877Z,21.63
2022-10-14T15:07:11.789Z,20.90
2022-10-14T15:09:46.484Z,18.27
2022-10-14T15:12:34.487Z,25.77
2022-10-14T15:15:04.110Z,22.90
2022-10-14T15:17:40.571Z,26.00
2022-10-14T15:20:11.155Z,25.20
2022-10-14T15:25:23.556Z,21.15
2022-10-14T15:28:02.354Z,14.07
2022-10-14T15:30:39.942Z,15.27
2022-10-14T15:33:23.010Z,15.32
2022-10-14T15:36:00.855Z,15.32
2022-10-14T15:41:04.880Z,14.98
2022-10-14T15:43:32.904Z,14.98
2022-10-14T15:46:19.355Z,16.00
2022-10-14T15:48:55.067Z,16.25
2022-10-14T15:51:24.212Z,15.38
2022-10-14T15:53:52.084Z,15.23
2022-10-14T15:56:21.340Z,17.98
2022-10-14T15:58:49.823Z,22.10
2022-10-14T16:01:22.917Z,25.80
2022-10-14T16:03:55.426Z,24.80
2022-10-14T16:06:24.543Z,27.80
2022-10-14T16:08:52.169Z,25.50
2022-10-14T16:11:28.885Z,23.13
2022-10-14T16:13:56.822Z,23.60
2022-10-14T16:16:46.553Z,16.92
2022-10-14T16:19:13.815Z,18.80
2022-10-14T16:21:41.405Z,22.83
2022-10-14T16:24:16.639Z,18.85
2022-10-14T16:26:43.941Z,19.73
2022-10-14T16:29:11.740Z,21.98
2022-10-14T16:31:39.027Z,19.92
2022-10-14T16:34:06.450Z,21.00
2022-10-14T16:36:33.688Z,18.05
2022-10-14T16:39:03.467Z,20.27
2022-10-14T16:41:31.033Z,19.10
2022-10-14T16:43:58.487Z,17.40
2022-10-14T16:46:45.584Z,21.50
2022-10-14T16:49:12.852Z,19.58
2022-10-14T16:51:41.456Z,27.58
2022-10-14T16:54:09.303Z,16.85
2022-10-14T16:56:54.918Z,24.20
2022-10-14T16:59:24.128Z,30.15
2022-10-14T17:01:52.286Z,53.15
2022-10-14T17:04:20.346Z,59.42
2022-10-14T17:06:51.868Z,51.17
2022-10-14T17:09:19.998Z,26.30
2022-10-14T17:11:50.061Z,35.58
2022-10-14T17:14:24.268Z,40.38
2022-10-14T17:16:54.750Z,65.03
2022-10-14T17:19:23.999Z,69.25
2022-10-14T17:21:51.357Z,83.25
2022-10-14T17:24:18.864Z,83.90
2022-10-14T17:26:46.980Z,97.88
2022-10-14T17:29:14.546Z,109.13
2022-10-14T17:31:41.896Z,88.18
2022-10-14T17:34:10.328Z,75.82
2022-10-14T17:36:38.907Z,79.65
2022-10-14T17:39:06.496Z,81.78
2022-10-14T17:41:33.999Z,73.05
2022-10-14T17:44:01.714Z,64.32
2022-10-14T17:46:31.534Z,61.22
2022-10-14T17:49:03.808Z,55.45
2022-10-14T17:51:32.306Z,48.72
2022-10-14T17:54:05.671Z,47.60
2022-10-14T17:56:35.527Z,40.13
2022-10-14T17:59:06.192Z,36.95
2022-10-14T18:04:21.667Z,31.27
2022-10-14T18:06:49.059Z,27.52
2022-10-14T18:09:16.339Z,25.35
2022-10-14T18:14:33.568Z,26.95
2022-10-14T18:17:00.930Z,23.67
2022-10-14T18:19:28.359Z,24.90
2022-10-14T18:21:55.763Z,23.90
2022-10-14T18:24:23.698Z,26.63
2022-10-14T18:26:52.626Z,23.90
2022-10-14T18:29:20.036Z,25.48
2022-10-14T18:34:24.932Z,22.73
2022-10-14T18:36:52.220Z,21.77
2022-10-14T18:39:20.821Z,27.42
2022-10-14T18:41:48.336Z,23.95
2022-10-14T18:44:15.714Z,29.40
2022-10-14T18:46:42.998Z,18.63
2022-10-14T18:49:12.110Z,22.45
2022-10-14T18:51:40.572Z,22.15
2022-10-14T18:54:15.697Z,23.70
2022-10-14T18:56:44.567Z,22.52
2022-10-14T18:59:18.043Z,21.17
2022-10-14T19:01:46.640Z,22.30
2022-10-14T19:04:15.913Z,19.52
2022-10-14T19:06:48.560Z,22.02
2022-10-14T19:09:21.790Z,20.75
2022-10-14T19:11:53.119Z,20.67
2022-10-14T19:14:22.567Z,15.80
2022-10-14T19:16:50.069Z,18.77
2022-10-14T19:19:19.947Z,21.48
2022-10-14T19:21:54.455Z,16.98
2022-10-14T19:24:22.241Z,16.60
2022-10-14T19:26:50.180Z,14.57
2022-10-14T19:29:18.890Z,22.83
2022-10-14T19:31:46.081Z,13.73
2022-10-14T19:34:16.015Z,15.68
2022-10-14T19:36:44.757Z,17.45
2022-10-14T19:39:15.744Z,16.98
2022-10-14T19:41:44.975Z,16.65
2022-10-14T19:44:14.430Z,14.85
2022-10-14T19:46:42.394Z,19.45
2022-10-14T19:49:13.400Z,15.85
2022-10-14T19:51:41.317Z,18.88
2022-10-14T19:54:10.789Z,17.33
2022-10-14T19:56:38.091Z,17.55
2022-10-14T19:59:06.154Z,20.88
2022-10-14T20:01:33.679Z,18.83
2022-10-14T20:04:03.184Z,27.77
2022-10-14T20:06:35.473Z,22.70
2022-10-14T20:09:03.340Z,17.27
2022-10-14T20:11:31.355Z,23.98
2022-10-14T20:13:58.647Z,23.55
2022-10-14T20:16:27.170Z,18.55
2022-10-14T20:18:55.810Z,24.80
2022-10-14T20:21:23.859Z,18.23
2022-10-14T20:23:51.508Z,18.20
2022-10-14T20:26:21.650Z,22.75
2022-10-14T20:28:50.211Z,18.45
2022-10-14T20:31:20.800Z,20.88
2022-10-14T20:33:48.854Z,20.35
2022-10-14T20:36:20.037Z,19.08
2022-10-14T20:38:49.070Z,18.95
2022-10-14T20:41:26.657Z,19.15
2022-10-14T20:43:55.359Z,18.00
2022-10-14T20:46:24.662Z,19.75
2022-10-14T20:48:57.100Z,19.20
2022-10-14T20:51:25.101Z,20.33
2022-10-14T20:54:01.683Z,20.55
2022-10-14T20:56:33.538Z,21.00
2022-10-14T20:59:08.609Z,19.38
2022-10-14T21:01:37.279Z,19.17
2022-10-14T21:04:07.362Z,18.63
2022-10-14T21:06:35.462Z,19.30
2022-10-14T21:09:02.925Z,18.17
2022-10-14T21:11:31.248Z,17.83
2022-10-14T21:14:00.412Z,21.33
2022-10-14T21:16:34.566Z,22.88
2022-10-14T21:19:09.226Z,24.40
2022-10-14T21:21:42.894Z,22.80
2022-10-14T21:24:14.848Z,23.98
2022-10-14T21:26:42.573Z,21.75
2022-10-14T21:29:10.323Z,27.88
2022-10-14T21:31:38.479Z,25.35
2022-10-14T21:34:06.677Z,26.77
2022-10-14T21:36:36.125Z,23.73
2022-10-14T21:39:08.336Z,28.05
2022-10-14T21:41:36.624Z,26.67
2022-10-14T21:44:04.804Z,26.83
2022-10-14T21:46:32.416Z,24.65
2022-10-14T21:49:00.221Z,20.98
2022-10-14T21:51:30.995Z,28.08
2022-10-14T21:56:27.377Z,24.13
2022-10-14T21:58:55.668Z,22.60
2022-10-14T22:01:27.267Z,26.63
2022-10-14T22:04:00.130Z,29.48
2022-10-14T22:06:28.256Z,29.58
2022-10-14T22:08:58.313Z,27.42
2022-10-14T22:11:32.806Z,29.13
2022-10-14T22:14:02.888Z,29.90
2022-10-14T22:16:30.958Z,31.30
2022-10-14T22:19:02.056Z,29.52
2022-10-14T22:21:32.662Z,29.23
2022-10-14T22:24:00.365Z,29.50
2022-10-14T22:26:29.836Z,32.72
2022-10-14T22:29:04.474Z,29.55
2022-10-14T22:31:33.929Z,28.10
2022-10-14T22:34:07.352Z,29.60
2022-10-14T22:36:35.798Z,30.08
2022-10-14T22:39:07.598Z,30.33
2022-10-14T22:41:36.092Z,25.63
2022-10-14T22:44:05.463Z,30.08
2022-10-14T22:46:35.738Z,31.20
2022-10-14T22:49:03.604Z,30.08
2022-10-14T22:51:40.857Z,39.53
2022-10-14T22:54:09.021Z,30.20
2022-10-14T22:56:36.419Z,29.13
2022-10-14T22:59:09.750Z,27.83
2022-10-14T23:01:38.895Z,30.00
2022-10-14T23:04:07.466Z,29.38
2022-10-14T23:06:35.336Z,27.83
2022-10-14T23:09:03.160Z,40.92
2022-10-14T23:11:34.717Z,31.15
2022-10-14T23:14:06.144Z,31.40
2022-10-14T23:16:35.444Z,32.15
2022-10-14T23:19:02.961Z,34.75
2022-10-14T23:21:33.860Z,33.05
2022-10-14T23:24:06.198Z,33.42
2022-10-14T23:26:35.628Z,36.72
2022-10-14T23:29:07.344Z,31.98
2022-10-14T23:31:36.582Z,37.80
2022-10-14T23:34:12.341Z,35.83
2022-10-14T23:36:39.631Z,45.65
2022-10-14T23:39:07.461Z,39.35
2022-10-14T23:41:34.727Z,34.42
2022-10-14T23:44:02.122Z,35.35
2022-10-14T23:46:29.329Z,37.83
2022-10-14T23:49:07.620Z,35.13
2022-10-14T23:51:42.264Z,36.53
2022-10-14T23:54:09.690Z,41.13
2022-10-14T23:56:37.432Z,36.35
2022-10-14T23:59:04.731Z,42.63
